Time;durP1;ratioP1;P1;durP2;ratioP2;P2;SDS_P1;SDS_P2;PMS_P1;PMS_P2;Temp;Humidity;BMP_temperature;BMP_pressure;BME280_temperature;BME280_humidity;BME280_pressure;Samples;Min_cycle;Max_cycle;Signal;HPM_P1;HPM_P2
2021/09/25 00:04:28;;;;;;;18.95;9.80;;;;;;;11.87;89.35;100574.28;20419305;29;20051;-69
2021/09/25 00:14:30;;;;;;;18.65;10.27;;;;;;;11.85;88.77;100583.94;20419507;29;20095;-69
2021/09/25 00:24:33;;;;;;;13.70;9.30;;;;;;;11.71;89.18;100575.44;20418733;29;20047;-69
2021/09/25 00:34:34;;;;;;;14.27;9.10;;;;;;;11.56;87.46;100571.31;20417494;29;20043;-69
2021/09/25 00:44:36;;;;;;;13.00;8.48;;;;;;;11.33;88.74;100581.31;20416422;29;20095;-69
2021/09/25 00:54:38;;;;;;;13.10;9.18;;;;;;;11.37;88.50;100598.72;20416064;29;20166;-69
2021/09/25 01:04:40;;;;;;;13.50;9.38;;;;;;;11.34;88.60;100591.75;20415523;29;20502;-69
2021/09/25 01:14:42;;;;;;;15.13;9.70;;;;;;;11.26;88.21;100588.41;20415523;29;20052;-69
2021/09/25 01:24:44;;;;;;;14.13;9.30;;;;;;;11.18;87.40;100580.66;20414936;29;20051;-69
2021/09/25 01:34:46;;;;;;;14.68;9.13;;;;;;;11.08;87.17;100593.94;20414040;29;20131;-69
2021/09/25 01:44:50;;;;;;;15.00;8.48;;;;;;;11.01;86.92;100593.13;20414309;29;20087;-69
2021/09/25 01:54:51;;;;;;;14.82;8.95;;;;;;;10.88;86.67;100599.47;20424761;29;20080;-69
2021/09/25 02:04:53;;;;;;;13.07;8.63;;;;;;;10.76;87.49;100595.22;20428716;29;20402;-69
2021/09/25 02:14:55;;;;;;;13.20;9.48;;;;;;;10.66;88.72;100596.25;20428737;29;20102;-69
2021/09/25 02:24:57;;;;;;;12.88;8.95;;;;;;;10.62;88.09;100594.53;20435741;29;20040;-69
2021/09/25 02:34:59;;;;;;;18.20;10.15;;;;;;;10.53;89.01;100592.91;20427678;29;20052;-69
2021/09/25 02:45:00;;;;;;;17.50;10.57;;;;;;;10.47;88.38;100586.00;20425861;29;20040;-69
2021/09/25 02:55:03;;;;;;;14.77;10.15;;;;;;;10.40;89.29;100568.66;20425177;29;20091;-69
2021/09/25 03:05:05;;;;;;;17.35;10.55;;;;;;;10.34;88.51;100563.47;20423192;29;20051;-69
2021/09/25 03:15:28;;;;;;;13.85;8.88;;;;;;;10.17;88.62;100561.03;20423631;29;20039;-69
2021/09/25 03:25:30;;;;;;;15.40;9.68;;;;;;;10.05;89.35;100565.53;20423247;29;20098;-69
2021/09/25 03:35:32;;;;;;;14.10;8.95;;;;;;;9.94;88.78;100566.50;20422280;29;20055;-69
2021/09/25 03:45:34;;;;;;;17.13;10.35;;;;;;;9.88;89.90;100573.56;20421839;29;20059;-69
2021/09/25 03:55:37;;;;;;;19.75;11.90;;;;;;;9.83;90.92;100559.66;20420925;29;20056;-68
2021/09/25 04:05:39;;;;;;;20.15;11.07;;;;;;;9.71;89.64;100569.34;20423312;28;20110;-69
2021/09/25 04:15:41;;;;;;;18.63;11.20;;;;;;;9.69;90.41;100570.25;20498705;28;20662;-69
2021/09/25 04:25:43;;;;;;;17.77;11.55;;;;;;;9.60;90.61;100570.34;20499345;28;20537;-69
2021/09/25 04:35:45;;;;;;;19.67;12.60;;;;;;;9.55;90.11;100570.38;20498221;28;20047;-69
2021/09/25 04:45:46;;;;;;;21.92;12.00;;;;;;;9.44;89.31;100596.63;20498140;28;20058;-69
2021/09/25 04:55:48;;;;;;;18.40;11.32;;;;;;;9.39;89.81;100590.56;20484478;28;20094;-69
2021/09/25 05:05:51;;;;;;;18.67;11.60;;;;;;;9.29;90.01;100586.25;20495781;28;20409;-69
2021/09/25 05:15:53;;;;;;;24.13;12.90;;;;;;;9.21;89.87;100588.09;20495669;28;20078;-68
2021/09/25 05:25:55;;;;;;;22.15;11.00;;;;;;;9.19;90.03;100584.59;20500425;28;20514;-68
2021/09/25 05:35:56;;;;;;;15.88;9.88;;;;;;;9.20;90.16;100584.59;20511392;28;20066;-69
2021/09/25 05:45:58;;;;;;;16.30;10.50;;;;;;;9.34;89.89;100574.06;20511498;28;20133;-69
2021/09/25 05:56:00;;;;;;;15.55;10.25;;;;;;;9.47;89.32;100575.66;20510449;28;20189;-69
2021/09/25 06:06:02;;;;;;;15.30;10.10;;;;;;;9.68;89.19;100590.31;20511533;28;20054;-69
2021/09/25 06:16:04;;;;;;;17.02;10.80;;;;;;;9.89;89.55;100581.38;20507788;28;20537;-68
2021/09/25 06:26:08;;;;;;;17.35;10.60;;;;;;;10.19;89.82;100592.41;20508172;28;20047;-68
2021/09/25 06:36:10;;;;;;;16.90;11.45;;;;;;;10.54;88.93;100602.53;20506702;28;20059;-68
2021/09/25 06:46:13;;;;;;;17.77;12.23;;;;;;;10.83;88.72;100606.47;20507924;28;20051;-68
2021/09/25 06:56:15;;;;;;;16.90;11.50;;;;;;;10.97;89.72;100596.69;20508000;28;20054;-68
2021/09/25 07:06:17;;;;;;;18.10;11.00;;;;;;;11.29;89.78;100596.22;20486994;28;20044;-69
2021/09/25 07:16:19;;;;;;;14.88;10.05;;;;;;;11.57;89.11;100613.22;20456558;28;20103;-68
2021/09/25 07:26:21;;;;;;;18.50;13.05;;;;;;;11.89;89.43;100619.75;20488641;28;20387;-68
2021/09/25 07:36:24;;;;;;;20.23;12.95;;;;;;;12.24;89.22;100620.84;20498742;28;20098;-68
2021/09/25 07:46:25;;;;;;;17.27;11.85;;;;;;;12.53;88.21;100620.28;20424858;29;20048;-68
2021/09/25 07:56:27;;;;;;;19.35;12.68;;;;;;;12.89;88.56;100612.50;20424261;29;20091;-68
2021/09/25 08:06:28;;;;;;;21.05;14.35;;;;;;;13.26;87.28;100610.81;20421702;28;20052;-69
2021/09/25 08:16:30;;;;;;;18.60;11.63;;;;;;;13.65;86.50;100609.88;20475763;28;20051;-68
2021/09/25 08:26:32;;;;;;;17.60;10.63;;;;;;;13.89;84.50;100606.63;20500270;28;20047;-68
2021/09/25 08:36:34;;;;;;;16.30;10.00;;;;;;;14.25;83.79;100598.66;20498948;28;20051;-68
2021/09/25 08:46:41;;;;;;;13.57;8.98;;;;;;;14.71;81.07;100603.53;20498454;28;20051;-69
2021/09/25 08:56:42;;;;;;;12.80;8.55;;;;;;;15.21;80.56;100589.69;20498108;28;20098;-69
2021/09/25 09:06:48;;;;;;;11.40;7.30;;;;;;;15.56;80.10;100586.75;20496248;28;20059;-69
2021/09/25 09:16:57;;;;;;;11.50;7.35;;;;;;;16.00;78.05;100583.53;20441730;28;20726;-70
2021/09/25 09:27:10;;;;;;;10.32;6.55;;;;;;;16.45;75.86;100578.41;20419011;29;20513;-69
2021/09/25 09:37:17;;;;;;;11.73;7.10;;;;;;;16.82;75.45;100566.47;20416869;28;20058;-70
2021/09/25 09:47:21;;;;;;;16.40;9.18;;;;;;;17.19;73.91;100566.72;20417781;29;20099;-70
2021/09/25 09:57:23;;;;;;;15.67;8.43;;;;;;;17.57;72.49;100572.22;20417567;29;20052;-70
2021/09/25 10:07:25;;;;;;;12.95;7.30;;;;;;;17.69;71.79;100561.13;20416928;28;20525;-69
2021/09/25 10:17:27;;;;;;;9.18;6.40;;;;;;;17.80;67.66;100541.28;20488983;28;20051;-70
2021/09/25 10:27:40;;;;;;;11.43;6.70;;;;;;;18.28;66.26;100532.09;20510542;28;20103;-70
2021/09/25 10:37:58;;;;;;;14.48;6.38;;;;;;;18.90;63.84;100515.91;20512037;28;20049;-70
2021/09/25 10:48:22;;;;;;;9.77;5.95;;;;;;;18.68;64.36;100524.06;20508984;28;20134;-69
2021/09/25 10:58:24;;;;;;;10.90;7.40;;;;;;;18.92;68.14;100519.38;20508510;28;20055;-70
2021/09/25 11:08:33;;;;;;;12.05;6.88;;;;;;;19.02;66.90;100514.47;20507291;28;20044;-70
2021/09/25 11:18:50;;;;;;;9.20;5.85;;;;;;;19.28;63.82;100499.91;20435861;29;20044;-70
2021/09/25 11:28:51;;;;;;;9.20;6.00;;;;;;;19.42;62.33;100497.41;20426581;29;20051;-70
2021/09/25 11:38:53;;;;;;;10.18;6.43;;;;;;;19.98;59.58;100479.50;20425729;28;20489;-70
2021/09/25 11:48:59;;;;;;;11.73;6.65;;;;;;;20.07;62.17;100467.50;20425467;29;20095;-70
2021/09/25 11:59:00;;;;;;;8.70;5.78;;;;;;;20.44;57.31;100451.25;20425331;29;20052;-70
2021/09/25 12:09:02;;;;;;;7.47;4.72;;;;;;;20.53;57.39;100439.25;20423484;28;20044;-70
2021/09/25 12:19:04;;;;;;;8.65;5.10;;;;;;;20.57;57.92;100434.63;20480345;28;20047;-70
2021/09/25 12:29:13;;;;;;;9.98;5.50;;;;;;;20.74;58.08;100422.09;20501096;28;20047;-70
2021/09/25 12:39:20;;;;;;;10.45;5.80;;;;;;;20.81;58.28;100419.06;20499136;28;20047;-70
2021/09/25 12:49:34;;;;;;;9.02;5.18;;;;;;;21.06;58.26;100406.03;20500347;28;20067;-70
2021/09/25 12:59:41;;;;;;;14.03;6.67;;;;;;;21.32;57.91;100387.66;20499515;28;20091;-70
2021/09/25 13:09:46;;;;;;;8.15;5.38;;;;;;;21.25;57.59;100382.69;20498363;28;20043;-70
2021/09/25 13:19:48;;;;;;;10.48;5.32;;;;;;;21.40;57.13;100378.25;20418798;29;20052;-70
2021/09/25 13:29:49;;;;;;;8.35;5.00;;;;;;;21.57;56.66;100361.25;20419098;29;20490;-70
2021/09/25 13:39:51;;;;;;;7.55;4.88;;;;;;;21.61;56.91;100354.78;20401146;29;20083;-70
2021/09/25 13:49:53;;;;;;;7.53;4.57;;;;;;;21.76;55.79;100347.63;20427598;29;20111;-70
2021/09/25 13:59:55;;;;;;;8.73;5.05;;;;;;;21.73;55.47;100348.69;20433628;29;20110;-70
2021/09/25 14:09:57;;;;;;;6.75;4.22;;;;;;;21.69;55.40;100339.16;20434704;29;20055;-70
2021/09/25 14:19:58;;;;;;;7.50;4.97;;;;;;;21.97;54.67;100338.25;20512102;28;20055;-70
2021/09/25 14:30:00;;;;;;;6.65;4.22;;;;;;;22.26;54.36;100331.06;20511762;28;20102;-70
2021/09/25 14:40:02;;;;;;;6.70;4.57;;;;;;;22.25;54.73;100324.03;20509867;28;20047;-70
2021/09/25 14:50:05;;;;;;;7.28;4.65;;;;;;;22.27;54.84;100313.25;20509729;28;20541;-70
2021/09/25 15:00:08;;;;;;;6.85;4.45;;;;;;;22.07;54.46;100314.53;20507233;28;20062;-69
2021/09/25 15:10:10;;;;;;;7.53;4.85;;;;;;;21.86;55.39;100311.44;20506705;28;20536;-69
2021/09/25 15:20:12;;;;;;;6.82;4.25;;;;;;;21.85;55.39;100314.22;20506153;28;20043;-69
2021/09/25 15:30:15;;;;;;;6.50;4.50;;;;;;;22.16;54.23;100303.31;20751918;23;20100;-84
2021/09/25 15:40:17;;;;;;;5.85;3.67;;;;;;;22.21;52.76;100295.84;20755944;28;20042;-84
2021/09/25 15:50:19;;;;;;;6.20;3.83;;;;;;;22.03;51.91;100286.34;20754827;28;20163;-85
2021/09/25 16:00:24;;;;;;;7.22;4.40;;;;;;;21.89;56.25;100294.38;20732713;28;20104;-85
2021/09/25 16:10:27;;;;;;;7.43;5.03;;;;;;;21.74;57.86;100283.75;20737513;28;20050;-83
2021/09/25 16:20:30;;;;;;;9.18;6.13;;;;;;;21.51;63.11;100289.69;20744303;28;20099;-83
2021/09/25 16:30:32;;;;;;;7.78;5.35;;;;;;;20.87;66.43;100298.94;20739726;28;20073;-83
2021/09/25 16:40:34;;;;;;;10.27;5.43;;;;;;;20.83;66.60;100305.41;20755874;28;20046;-83
2021/09/25 16:50:36;;;;;;;7.32;5.05;;;;;;;21.00;66.58;100299.94;20735525;28;20558;-83
2021/09/25 17:00:38;;;;;;;9.45;4.88;;;;;;;20.62;67.61;100300.41;20730361;28;20494;-83
2021/09/25 17:10:41;;;;;;;9.57;4.88;;;;;;;20.09;69.93;100322.94;20751102;28;20069;-83
2021/09/25 17:20:43;;;;;;;9.13;5.20;;;;;;;19.83;70.30;100304.91;20735992;28;20054;-82
2021/09/25 17:30:45;;;;;;;12.27;7.35;;;;;;;19.43;72.10;100297.31;20732644;28;20069;-83
2021/09/25 17:40:47;;;;;;;14.55;9.63;;;;;;;19.42;72.33;100310.69;20750691;28;20050;-83
2021/09/25 17:50:50;;;;;;;14.07;9.10;;;;;;;19.49;72.48;100307.59;20747764;28;20744;-85
2021/09/25 18:00:55;;;;;;;12.48;6.57;;;;;;;19.81;69.72;100285.56;20774138;28;20045;-84
2021/09/25 18:10:57;;;;;;;16.50;10.05;;;;;;;19.51;72.53;100312.00;20822518;28;20069;-85
2021/09/25 18:21:00;;;;;;;11.30;7.35;;;;;;;19.00;74.79;100322.63;20812971;28;20111;-85
2021/09/25 18:31:04;;;;;;;9.32;6.50;;;;;;;18.57;76.53;100332.72;20807666;28;20057;-84
2021/09/25 18:41:06;;;;;;;13.23;6.88;;;;;;;18.33;78.42;100333.94;20745349;28;20050;-84
2021/09/25 18:51:09;;;;;;;11.13;7.47;;;;;;;18.25;78.60;100320.19;20739820;28;20104;-85
2021/09/25 19:01:12;;;;;;;11.27;7.03;;;;;;;18.10;79.26;100327.94;20751891;28;20459;-85
2021/09/25 19:11:16;;;;;;;11.90;6.57;;;;;;;18.02;80.35;100340.72;20760289;28;20601;-85
2021/09/25 19:21:18;;;;;;;9.20;7.10;;;;;;;17.97;80.61;100353.31;20790901;28;20042;-84
2021/09/25 19:31:20;;;;;;;10.98;7.32;;;;;;;18.05;80.00;100356.44;20740822;28;20045;-84
2021/09/25 19:41:21;;;;;;;15.85;13.05;;;;;;;17.83;81.41;100356.63;20665491;28;20046;-84
2021/09/25 19:51:23;;;;;;;13.15;8.18;;;;;;;17.52;82.44;100375.63;20659674;28;20042;-84
2021/09/25 20:01:25;;;;;;;12.93;8.48;;;;;;;17.46;82.33;100361.84;20662372;28;20042;-84
2021/09/25 20:11:27;;;;;;;11.98;8.05;;;;;;;17.51;81.72;100366.00;20676253;28;20054;-84
2021/09/25 20:21:30;;;;;;;12.90;8.07;;;;;;;17.37;83.33;100374.53;20611258;28;20051;-84
2021/09/25 20:31:32;;;;;;;13.10;8.65;;;;;;;17.44;82.73;100385.72;20599901;28;20098;-84
2021/09/25 20:41:33;;;;;;;18.05;12.75;;;;;;;17.50;82.72;100390.75;20634525;28;20097;-84
2021/09/25 20:51:36;;;;;;;13.77;8.85;;;;;;;17.48;82.72;100399.66;20708469;28;20053;-84
2021/09/25 21:01:43;;;;;;;14.55;10.00;;;;;;;17.52;82.40;100393.31;20743236;28;20499;-85
2021/09/25 21:11:45;;;;;;;16.65;11.18;;;;;;;17.59;81.76;100387.69;20737561;28;20077;-85
2021/09/25 21:21:47;;;;;;;11.32;8.73;;;;;;;17.61;82.43;100390.25;20740123;28;20054;-85
2021/09/25 21:31:54;;;;;;;;;;;;;;;17.64;82.15;100408.66;20730518;28;20042;-86
2021/09/25 21:41:58;;;;;;;15.40;10.80;;;;;;;17.57;84.26;100392.19;20719109;28;20330;-85
2021/09/25 21:52:00;;;;;;;14.33;11.13;;;;;;;17.55;84.58;100386.09;20646104;28;20612;-86
2021/09/25 22:02:03;;;;;;;20.17;13.93;;;;;;;17.51;86.88;100403.06;20645554;28;20042;-86
2021/09/25 22:12:06;;;;;;;19.83;15.23;;;;;;;17.43;87.76;100405.16;20658522;28;20077;-85
2021/09/25 22:22:07;;;;;;;16.70;12.27;;;;;;;17.08;88.32;100410.19;20658666;28;20050;-85
2021/09/25 22:32:11;;;;;;;19.73;12.98;;;;;;;17.12;89.21;100438.25;20657689;28;20105;-85
2021/09/25 22:42:12;;;;;;;14.68;11.02;;;;;;;17.17;89.90;100412.47;20675520;28;20053;-85
2021/09/25 22:52:15;;;;;;;16.67;12.57;;;;;;;17.28;89.97;100416.44;20657857;28;20046;-85
2021/09/25 23:02:17;;;;;;;16.70;12.60;;;;;;;17.31;89.87;100416.31;20655221;28;20397;-84
2021/09/25 23:12:19;;;;;;;19.75;14.15;;;;;;;17.31;89.91;100416.31;20656362;28;20050;-85
2021/09/25 23:22:21;;;;;;;15.80;12.32;;;;;;;17.21;91.17;100407.91;20655373;28;20051;-85
2021/09/25 23:32:22;;;;;;;15.48;12.27;;;;;;;17.09;92.12;100417.19;20651674;28;20050;-85
2021/09/25 23:42:24;;;;;;;20.17;14.25;;;;;;;16.99;92.32;100421.16;20618332;28;20085;-85
2021/09/25 23:52:26;;;;;;;18.40;13.48;;;;;;;16.89;92.37;100419.84;20591073;28;20090;-85
